createdAt,value
2022-07-29T00:00:16.900Z,1.52
2022-07-29T00:01:20.007Z,1.92
2022-07-29T00:02:22.094Z,1.50
2022-07-29T00:03:25.321Z,1.80
2022-07-29T00:04:27.487Z,1.52
2022-07-29T00:05:30.647Z,1.90
2022-07-29T00:06:34.081Z,1.60
2022-07-29T00:07:37.144Z,2.03
2022-07-29T00:08:39.242Z,1.60
2022-07-29T00:09:50.468Z,1.63
2022-07-29T00:10:54.311Z,2.00
2022-07-29T00:12:00.544Z,1.83
2022-07-29T00:13:02.848Z,1.90
2022-07-29T00:14:06.848Z,2.08
2022-07-29T00:15:10.729Z,1.70
2022-07-29T00:16:12.728Z,1.90
2022-07-29T00:17:19.073Z,1.55
2022-07-29T00:18:21.262Z,1.45
2022-07-29T00:19:24.369Z,1.70
2022-07-29T00:20:27.211Z,1.75
2022-07-29T00:21:30.320Z,1.63
2022-07-29T00:22:33.814Z,1.42
2022-07-29T00:23:37.049Z,1.92
2022-07-29T00:24:39.114Z,2.22
2022-07-29T00:25:42.189Z,2.10
2022-07-29T00:26:44.271Z,2.00
2022-07-29T00:27:47.836Z,1.80
2022-07-29T00:28:49.857Z,1.60
2022-07-29T00:29:52.882Z,1.83
2022-07-29T00:30:54.963Z,1.80
2022-07-29T00:31:58.160Z,2.00
2022-07-29T00:33:00.243Z,1.85
2022-07-29T00:34:03.398Z,2.10
2022-07-29T00:35:24.908Z,1.92
2022-07-29T00:36:26.966Z,1.70
2022-07-29T00:37:29.037Z,2.00
2022-07-29T00:38:33.411Z,2.05
2022-07-29T00:39:35.464Z,2.10
2022-07-29T00:40:38.464Z,2.00
2022-07-29T00:41:45.217Z,1.80
2022-07-29T00:42:49.790Z,1.80
2022-07-29T00:43:51.828Z,2.20
2022-07-29T00:44:54.922Z,2.17
2022-07-29T00:45:57.060Z,1.83
2022-07-29T00:47:00.166Z,2.00
2022-07-29T00:48:02.360Z,2.03
2022-07-29T00:49:05.662Z,2.00
2022-07-29T00:50:11.335Z,1.75
2022-07-29T00:51:15.109Z,1.85
2022-07-29T00:52:17.351Z,1.73
2022-07-29T00:53:22.213Z,1.92
2022-07-29T00:54:25.665Z,1.70
2022-07-29T00:55:28.856Z,1.85
2022-07-29T00:56:31.726Z,1.75
2022-07-29T00:57:35.102Z,1.77
2022-07-29T00:58:37.252Z,2.15
2022-07-29T00:59:40.456Z,1.80
2022-07-29T01:00:43.713Z,1.80
2022-07-29T01:01:47.636Z,2.20
2022-07-29T01:02:50.707Z,1.90
2022-07-29T01:03:53.183Z,1.88
2022-07-29T01:04:57.999Z,2.00
2022-07-29T01:06:02.060Z,2.08
2022-07-29T01:07:05.198Z,1.80
2022-07-29T01:08:09.296Z,1.73
2022-07-29T01:09:12.062Z,2.03
2022-07-29T01:10:18.112Z,2.08
2022-07-29T01:11:21.010Z,1.83
2022-07-29T01:12:26.144Z,1.92
2022-07-29T01:13:29.903Z,2.00
2022-07-29T01:14:32.480Z,1.95
2022-07-29T01:15:39.261Z,1.63
2022-07-29T01:16:55.688Z,1.90
2022-07-29T01:18:05.986Z,2.10
2022-07-29T01:19:24.147Z,1.80
2022-07-29T01:20:39.841Z,1.90
2022-07-29T01:21:52.953Z,2.10
2022-07-29T01:23:28.210Z,1.92
2022-07-29T01:24:52.462Z,2.35
2022-07-29T01:26:29.849Z,2.08
2022-07-29T01:27:46.518Z,1.80
2022-07-29T01:29:06.157Z,1.75
2022-07-29T01:30:11.789Z,1.80
2022-07-29T01:31:25.215Z,1.70
2022-07-29T01:32:33.506Z,2.05
2022-07-29T01:33:51.123Z,2.38
2022-07-29T01:34:58.256Z,1.70
2022-07-29T01:36:02.990Z,1.90
2022-07-29T01:37:13.851Z,2.33
2022-07-29T01:38:21.846Z,2.08
2022-07-29T01:39:29.430Z,1.95
2022-07-29T01:40:39.840Z,1.75
2022-07-29T01:41:51.675Z,1.98
2022-07-29T01:42:56.772Z,2.42
2022-07-29T01:44:04.909Z,1.95
2022-07-29T01:45:11.916Z,1.70
2022-07-29T01:46:20.350Z,1.77
2022-07-29T01:47:27.120Z,2.13
2022-07-29T01:48:37.906Z,2.10
2022-07-29T01:49:44.343Z,2.08
2022-07-29T01:50:51.462Z,1.70
2022-07-29T01:51:58.639Z,1.88
2022-07-29T01:53:04.248Z,1.98
2022-07-29T01:54:11.929Z,1.90
2022-07-29T01:55:17.341Z,1.83
2022-07-29T01:56:25.318Z,1.90
2022-07-29T01:57:32.906Z,1.65
2022-07-29T01:58:37.777Z,1.90
2022-07-29T01:59:43.798Z,2.10
2022-07-29T02:00:47.922Z,1.90
2022-07-29T02:01:54.432Z,1.92
2022-07-29T02:02:58.025Z,1.70
2022-07-29T02:04:04.305Z,1.70
2022-07-29T02:05:11.259Z,1.80
2022-07-29T02:06:17.412Z,2.10
2022-07-29T02:07:23.103Z,1.80
2022-07-29T02:08:26.861Z,2.00
2022-07-29T02:09:31.043Z,2.20
2022-07-29T02:10:35.517Z,1.80
2022-07-29T02:11:40.218Z,2.10
2022-07-29T02:12:48.558Z,2.00
2022-07-29T02:13:56.827Z,1.85
2022-07-29T02:15:02.378Z,1.98
2022-07-29T02:16:08.945Z,1.92
2022-07-29T02:17:13.194Z,2.10
2022-07-29T02:18:20.660Z,1.85
2022-07-29T02:19:25.681Z,2.13
2022-07-29T02:20:30.351Z,2.03
2022-07-29T02:21:34.701Z,1.90
2022-07-29T02:22:40.045Z,1.90
2022-07-29T02:23:50.545Z,1.95
2022-07-29T02:24:55.612Z,2.22
2022-07-29T02:26:01.166Z,1.98
2022-07-29T02:27:05.005Z,2.03
2022-07-29T02:28:09.533Z,2.72
2022-07-29T02:29:14.532Z,2.30
2022-07-29T02:30:20.361Z,2.00
2022-07-29T02:31:26.738Z,2.10
2022-07-29T02:32:31.456Z,2.10
2022-07-29T02:33:35.059Z,2.13
2022-07-29T02:34:40.603Z,1.88
2022-07-29T02:35:45.885Z,2.17
2022-07-29T02:36:51.573Z,2.20
2022-07-29T02:38:09.830Z,2.55
2022-07-29T02:39:14.564Z,1.95
2022-07-29T02:40:17.549Z,2.00
2022-07-29T02:41:25.316Z,1.98
2022-07-29T02:42:28.964Z,2.03
2022-07-29T02:43:33.781Z,2.05
2022-07-29T02:44:37.356Z,2.10
2022-07-29T02:45:40.844Z,2.20
2022-07-29T02:46:48.683Z,2.33
2022-07-29T02:47:51.672Z,2.28
2022-07-29T02:49:01.774Z,2.05
2022-07-29T02:50:09.374Z,2.40
2022-07-29T02:51:43.370Z,2.20
2022-07-29T02:52:44.976Z,1.80
2022-07-29T02:53:52.390Z,2.15
2022-07-29T02:54:59.140Z,2.10
2022-07-29T02:56:05.906Z,2.45
2022-07-29T02:57:21.035Z,2.17
2022-07-29T02:58:29.567Z,2.08
2022-07-29T02:59:36.729Z,2.17
2022-07-29T03:00:42.179Z,2.00
2022-07-29T03:01:45.971Z,2.42
2022-07-29T03:02:52.300Z,2.42
2022-07-29T03:03:56.517Z,2.42
2022-07-29T03:04:59.200Z,2.28
2022-07-29T03:06:05.561Z,2.10
2022-07-29T03:07:08.443Z,2.28
2022-07-29T03:08:14.239Z,2.67
2022-07-29T03:09:17.005Z,2.60
2022-07-29T03:10:20.564Z,2.28
2022-07-29T03:11:23.497Z,2.75
2022-07-29T03:12:47.501Z,2.88
2022-07-29T03:13:50.185Z,2.60
2022-07-29T03:14:54.391Z,2.30
2022-07-29T03:15:58.909Z,2.50
2022-07-29T03:17:02.560Z,2.50
2022-07-29T03:18:06.543Z,3.00
2022-07-29T03:19:09.974Z,2.40
2022-07-29T03:20:13.797Z,2.58
2022-07-29T03:21:16.991Z,2.28
2022-07-29T03:22:19.438Z,2.38
2022-07-29T03:23:23.805Z,1.90
2022-07-29T03:24:27.932Z,2.17
2022-07-29T03:25:30.958Z,2.28
2022-07-29T03:26:33.134Z,2.20
2022-07-29T03:27:36.552Z,1.80
2022-07-29T03:28:38.655Z,2.00
2022-07-29T03:29:43.687Z,2.05
2022-07-29T03:30:52.143Z,2.10
2022-07-29T03:31:56.869Z,2.03
2022-07-29T03:32:58.985Z,2.38
2022-07-29T03:34:02.070Z,2.45
2022-07-29T03:35:05.047Z,2.22
2022-07-29T03:36:08.243Z,2.53
2022-07-29T03:37:11.281Z,2.67
2022-07-29T03:38:13.275Z,2.50
2022-07-29T03:39:19.283Z,2.95
2022-07-29T03:40:27.085Z,2.70
2022-07-29T03:41:31.915Z,2.70
2022-07-29T03:42:36.697Z,3.53
2022-07-29T03:43:49.411Z,3.35
2022-07-29T03:44:54.574Z,3.40
2022-07-29T03:45:59.842Z,3.10
2022-07-29T03:47:05.449Z,3.13
2022-07-29T03:48:12.243Z,2.90
2022-07-29T03:49:17.193Z,3.15
2022-07-29T03:50:22.436Z,2.95
2022-07-29T03:51:33.129Z,3.47
2022-07-29T03:52:37.224Z,3.17
2022-07-29T03:53:39.392Z,3.90
2022-07-29T03:54:42.865Z,3.70
2022-07-29T03:55:48.030Z,2.80
2022-07-29T03:56:53.934Z,3.03
2022-07-29T03:57:57.918Z,2.83
2022-07-29T03:59:01.593Z,2.97
2022-07-29T04:00:05.668Z,2.60
2022-07-29T04:01:08.882Z,2.90
2022-07-29T04:02:12.813Z,3.40
2022-07-29T04:03:16.104Z,3.08
2022-07-29T04:04:18.849Z,3.03
2022-07-29T04:05:22.216Z,3.03
2022-07-29T04:06:24.264Z,2.95
2022-07-29T04:07:27.391Z,2.80
2022-07-29T04:08:29.469Z,2.90
2022-07-29T04:09:32.797Z,2.40
2022-07-29T04:10:35.802Z,2.47
2022-07-29T04:12:03.346Z,2.90
2022-07-29T04:13:03.241Z,2.78
2022-07-29T04:14:05.445Z,3.10
2022-07-29T04:15:09.619Z,3.58
2022-07-29T04:16:11.707Z,2.85
2022-07-29T04:17:16.111Z,2.72
2022-07-29T04:18:18.205Z,3.40
2022-07-29T04:19:21.236Z,2.80
2022-07-29T04:20:23.368Z,2.85
2022-07-29T04:21:26.491Z,3.10
2022-07-29T04:22:28.667Z,4.43
2022-07-29T04:23:33.472Z,3.67
2022-07-29T04:24:35.893Z,2.90
2022-07-29T04:25:40.408Z,3.88
2022-07-29T04:26:42.454Z,2.97
2022-07-29T04:27:59.333Z,2.85
2022-07-29T04:29:02.804Z,3.33
2022-07-29T04:30:06.233Z,3.40
2022-07-29T04:31:09.346Z,3.50
2022-07-29T04:32:11.431Z,2.95
2022-07-29T04:33:16.007Z,2.90
2022-07-29T04:34:18.828Z,2.55
2022-07-29T04:35:22.914Z,3.10
2022-07-29T04:36:29.146Z,3.10
2022-07-29T04:37:33.020Z,2.85
2022-07-29T04:38:35.124Z,3.55
2022-07-29T04:39:38.169Z,3.92
2022-07-29T04:40:40.218Z,3.83
2022-07-29T04:41:43.253Z,6.05
2022-07-29T04:42:46.692Z,3.38
2022-07-29T04:43:51.277Z,2.53
2022-07-29T04:44:54.033Z,2.83
2022-07-29T04:45:57.144Z,2.80
2022-07-29T04:46:59.266Z,3.35
2022-07-29T04:48:02.288Z,2.70
2022-07-29T04:49:05.929Z,2.70
2022-07-29T04:50:10.263Z,2.30
2022-07-29T04:51:12.273Z,2.85
2022-07-29T04:52:15.372Z,2.75
2022-07-29T04:53:17.408Z,2.97
2022-07-29T04:54:20.586Z,2.45
2022-07-29T04:55:22.593Z,2.80
2022-07-29T04:56:25.656Z,2.97
2022-07-29T04:57:27.803Z,3.00
2022-07-29T04:58:30.954Z,2.83
2022-07-29T04:59:33.030Z,2.95
2022-07-29T05:00:36.178Z,2.90
2022-07-29T05:01:38.331Z,2.95
2022-07-29T05:02:41.501Z,2.92
2022-07-29T05:03:43.785Z,2.70
2022-07-29T05:04:48.252Z,3.03
2022-07-29T05:05:50.319Z,2.55
2022-07-29T05:06:53.349Z,2.88
2022-07-29T05:07:56.216Z,2.75
2022-07-29T05:08:59.242Z,3.13
2022-07-29T05:10:01.339Z,2.50
2022-07-29T05:11:12.463Z,2.70
2022-07-29T05:12:15.832Z,2.95
2022-07-29T05:13:18.938Z,2.80
2022-07-29T05:14:21.116Z,2.65
2022-07-29T05:15:24.701Z,3.33
2022-07-29T05:16:26.967Z,2.58
2022-07-29T05:17:30.200Z,3.20
2022-07-29T05:18:32.201Z,3.28
2022-07-29T05:19:39.686Z,2.42
2022-07-29T05:20:44.268Z,2.88
2022-07-29T05:21:46.353Z,3.47
2022-07-29T05:22:49.800Z,2.70
2022-07-29T05:23:51.902Z,2.88
2022-07-29T05:24:54.912Z,2.83
2022-07-29T05:25:56.899Z,2.97
2022-07-29T05:26:59.921Z,3.00
2022-07-29T05:28:01.989Z,2.92
2022-07-29T05:29:05.019Z,2.78
2022-07-29T05:30:09.298Z,3.63
2022-07-29T05:31:11.386Z,3.50
2022-07-29T05:32:14.800Z,3.50
2022-07-29T05:33:34.849Z,2.80
2022-07-29T05:34:50.133Z,4.03
2022-07-29T05:36:00.165Z,2.83
2022-07-29T05:37:02.781Z,3.90
2022-07-29T05:38:06.344Z,3.28
2022-07-29T05:39:09.609Z,3.17
2022-07-29T05:40:12.856Z,3.40
2022-07-29T05:41:14.979Z,3.60
2022-07-29T05:42:18.079Z,3.83
2022-07-29T05:43:20.204Z,4.20
2022-07-29T05:44:25.277Z,3.80
2022-07-29T05:45:28.430Z,3.03
2022-07-29T05:46:31.565Z,3.70
2022-07-29T05:47:33.676Z,2.80
2022-07-29T05:48:36.760Z,2.65
2022-07-29T05:49:38.865Z,3.50
2022-07-29T05:50:44.223Z,3.47
2022-07-29T05:51:51.676Z,2.83
2022-07-29T05:52:54.732Z,2.95
2022-07-29T05:53:56.771Z,3.17
2022-07-29T05:55:00.126Z,8.07
2022-07-29T05:56:04.531Z,4.63
2022-07-29T05:57:07.746Z,3.22
2022-07-29T05:58:09.937Z,3.63
2022-07-29T05:59:15.550Z,3.00
2022-07-29T06:00:20.448Z,3.50
2022-07-29T06:01:23.535Z,4.22
2022-07-29T06:02:25.675Z,3.92
2022-07-29T06:03:28.723Z,4.72
2022-07-29T06:04:31.814Z,2.80
2022-07-29T06:05:33.893Z,4.97
2022-07-29T06:06:37.172Z,3.13
2022-07-29T06:07:41.866Z,2.97
2022-07-29T06:08:53.146Z,3.17
2022-07-29T06:09:56.171Z,3.13
2022-07-29T06:10:58.163Z,3.20
2022-07-29T06:12:01.207Z,3.33
2022-07-29T06:13:03.862Z,3.33
2022-07-29T06:14:07.000Z,3.25
2022-07-29T06:15:10.308Z,3.10
2022-07-29T06:16:15.787Z,2.90
2022-07-29T06:17:33.078Z,2.65
2022-07-29T06:18:35.084Z,2.90
2022-07-29T06:19:38.274Z,2.92
2022-07-29T06:20:41.401Z,3.00
2022-07-29T06:21:44.529Z,3.20
2022-07-29T06:22:48.962Z,2.65
2022-07-29T06:23:51.013Z,2.75
2022-07-29T06:24:54.558Z,2.80
2022-07-29T06:25:56.600Z,3.00
2022-07-29T06:26:59.650Z,3.67
2022-07-29T06:28:02.005Z,2.88
2022-07-29T06:29:05.180Z,3.13
2022-07-29T06:30:09.117Z,3.10
2022-07-29T06:31:11.218Z,2.70
2022-07-29T06:32:14.387Z,3.13
2022-07-29T06:33:19.740Z,2.80
2022-07-29T06:34:22.769Z,2.50
2022-07-29T06:35:40.927Z,2.45
2022-07-29T06:36:45.991Z,2.47
2022-07-29T06:37:49.564Z,2.55
2022-07-29T06:38:56.946Z,3.10
2022-07-29T06:40:13.899Z,2.75
2022-07-29T06:41:17.058Z,2.80
2022-07-29T06:42:19.018Z,2.65
2022-07-29T06:43:22.042Z,2.78
2022-07-29T06:44:25.876Z,2.30
2022-07-29T06:45:27.833Z,2.47
2022-07-29T06:46:31.624Z,2.67
2022-07-29T06:47:33.636Z,2.92
2022-07-29T06:48:38.064Z,2.72
2022-07-29T06:49:41.109Z,2.60
2022-07-29T06:50:43.163Z,2.80
2022-07-29T06:51:46.275Z,2.50
2022-07-29T06:52:49.632Z,2.45
2022-07-29T06:54:00.394Z,2.88
2022-07-29T06:55:06.421Z,2.60
2022-07-29T06:56:10.338Z,2.30
2022-07-29T06:57:12.406Z,2.20
2022-07-29T06:58:17.026Z,2.45
2022-07-29T06:59:35.074Z,2.72
2022-07-29T07:00:37.683Z,2.65
2022-07-29T07:01:43.837Z,2.58
2022-07-29T07:02:45.992Z,2.35
2022-07-29T07:03:50.582Z,2.85
2022-07-29T07:04:52.887Z,2.65
2022-07-29T07:05:56.868Z,2.70
2022-07-29T07:07:00.093Z,2.65
2022-07-29T07:08:04.722Z,2.60
2022-07-29T07:09:07.956Z,2.70
2022-07-29T07:10:10.444Z,2.42
2022-07-29T07:11:13.494Z,2.50
2022-07-29T07:12:15.544Z,2.40
2022-07-29T07:13:19.212Z,3.33
2022-07-29T07:14:22.329Z,2.50
2022-07-29T07:15:39.651Z,2.58
2022-07-29T07:16:42.994Z,2.30
2022-07-29T07:17:45.091Z,2.53
2022-07-29T07:18:48.158Z,2.35
2022-07-29T07:19:50.399Z,2.38
2022-07-29T07:20:53.481Z,2.40
2022-07-29T07:21:55.498Z,2.63
2022-07-29T07:22:58.696Z,2.58
2022-07-29T07:24:06.878Z,2.38
2022-07-29T07:25:09.850Z,2.60
2022-07-29T07:26:12.830Z,2.30
2022-07-29T07:27:14.885Z,2.47
2022-07-29T07:28:17.896Z,2.40
2022-07-29T07:29:19.944Z,2.30
2022-07-29T07:30:23.425Z,2.70
2022-07-29T07:31:27.018Z,2.40
2022-07-29T07:32:29.127Z,2.53
2022-07-29T07:33:32.312Z,2.42
2022-07-29T07:34:34.558Z,2.53
2022-07-29T07:35:37.596Z,2.50
2022-07-29T07:36:39.696Z,2.40
2022-07-29T07:37:42.848Z,3.75
2022-07-29T07:38:44.956Z,2.25
2022-07-29T07:39:49.473Z,2.70
2022-07-29T07:40:52.562Z,2.63
2022-07-29T07:41:55.620Z,2.20
2022-07-29T07:42:58.628Z,2.50
2022-07-29T07:44:00.727Z,2.50
2022-07-29T07:45:13.508Z,2.40
2022-07-29T07:46:17.460Z,2.60
2022-07-29T07:47:20.878Z,2.55
2022-07-29T07:48:25.381Z,2.42
2022-07-29T07:49:27.633Z,2.60
2022-07-29T07:50:30.746Z,2.47
2022-07-29T07:51:33.021Z,2.67
2022-07-29T07:52:36.254Z,2.65
2022-07-29T07:53:38.292Z,2.85
2022-07-29T07:54:41.316Z,2.58
2022-07-29T07:56:10.620Z,2.10
2022-07-29T07:57:08.672Z,2.35
2022-07-29T07:58:11.843Z,2.53
2022-07-29T07:59:13.921Z,2.45
2022-07-29T08:00:18.202Z,2.72
2022-07-29T08:01:24.002Z,2.30
2022-07-29T08:02:27.206Z,2.67
2022-07-29T08:03:29.285Z,2.55
2022-07-29T08:04:32.304Z,2.65
2022-07-29T08:05:34.426Z,2.72
2022-07-29T08:06:37.931Z,2.40
2022-07-29T08:07:40.287Z,2.30
2022-07-29T08:08:43.827Z,2.55
2022-07-29T08:09:45.930Z,3.00
2022-07-29T08:10:57.340Z,2.28
2022-07-29T08:11:59.822Z,2.70
2022-07-29T08:13:04.555Z,2.67
2022-07-29T08:14:07.614Z,2.30
2022-07-29T08:15:10.418Z,2.42
2022-07-29T08:16:22.826Z,2.70
2022-07-29T08:17:25.089Z,2.10
2022-07-29T08:18:29.183Z,2.90
2022-07-29T08:19:32.451Z,2.22
2022-07-29T08:20:36.402Z,2.35
2022-07-29T08:21:39.543Z,4.97
2022-07-29T08:22:41.560Z,3.72
2022-07-29T08:23:59.758Z,2.80
2022-07-29T08:25:04.411Z,2.70
2022-07-29T08:26:11.470Z,2.70
2022-07-29T08:27:40.611Z,2.47
2022-07-29T08:28:37.353Z,2.58
2022-07-29T08:29:40.637Z,2.75
2022-07-29T08:30:43.696Z,2.83
2022-07-29T08:31:46.922Z,2.78
2022-07-29T08:32:54.543Z,2.45
2022-07-29T08:34:00.786Z,2.30
2022-07-29T08:35:03.829Z,2.13
2022-07-29T08:36:06.961Z,2.25
2022-07-29T08:37:10.024Z,2.40
2022-07-29T08:38:12.122Z,2.40
2022-07-29T08:39:15.147Z,2.42
2022-07-29T08:40:17.455Z,2.22
2022-07-29T08:41:22.217Z,2.30
2022-07-29T08:42:25.284Z,2.47
2022-07-29T08:43:28.667Z,2.65
2022-07-29T08:44:31.869Z,2.67
2022-07-29T08:45:47.374Z,2.40
2022-07-29T08:46:52.208Z,2.80
2022-07-29T08:47:54.580Z,2.30
2022-07-29T08:48:57.904Z,2.90
2022-07-29T08:50:00.223Z,2.50
2022-07-29T08:51:04.456Z,2.45
2022-07-29T08:52:08.395Z,2.83
2022-07-29T08:53:12.979Z,2.38
2022-07-29T08:54:19.663Z,2.22
2022-07-29T08:55:21.986Z,2.47
2022-07-29T08:56:26.431Z,2.67
2022-07-29T08:57:30.171Z,2.20
2022-07-29T08:58:36.978Z,2.50
2022-07-29T08:59:43.009Z,2.97
2022-07-29T09:00:49.984Z,2.45
2022-07-29T09:01:55.875Z,2.40
2022-07-29T09:03:00.856Z,2.35
2022-07-29T09:04:06.582Z,2.63
2022-07-29T09:05:09.479Z,2.25
2022-07-29T09:06:15.582Z,2.45
2022-07-29T09:07:20.089Z,2.20
2022-07-29T09:08:24.007Z,2.28
2022-07-29T09:09:27.057Z,2.30
2022-07-29T09:10:30.008Z,2.50
2022-07-29T09:11:35.885Z,2.50
2022-07-29T09:12:39.327Z,3.13
2022-07-29T09:13:41.776Z,2.38
2022-07-29T09:14:44.804Z,2.50
2022-07-29T09:15:46.838Z,2.22
2022-07-29T09:16:53.780Z,2.13
2022-07-29T09:18:04.551Z,2.50
2022-07-29T09:19:21.186Z,2.20
2022-07-29T09:20:24.985Z,2.30
2022-07-29T09:21:59.447Z,2.17
2022-07-29T09:23:09.965Z,2.28
2022-07-29T09:24:13.480Z,3.42
2022-07-29T09:25:34.334Z,3.30
2022-07-29T09:26:40.280Z,2.20
2022-07-29T09:27:43.404Z,2.70
2022-07-29T09:28:45.437Z,2.92
2022-07-29T09:29:48.636Z,2.15
2022-07-29T09:30:54.603Z,1.90
2022-07-29T09:31:57.792Z,1.90
2022-07-29T09:33:02.262Z,2.20
2022-07-29T09:34:06.607Z,2.53
2022-07-29T09:35:20.150Z,2.83
2022-07-29T09:36:22.711Z,2.33
2022-07-29T09:37:29.798Z,2.08
2022-07-29T09:38:32.047Z,1.83
2022-07-29T09:39:39.222Z,2.45
2022-07-29T09:40:41.706Z,1.92
2022-07-29T09:41:51.279Z,2.20
2022-07-29T09:42:56.670Z,2.10
2022-07-29T09:44:00.707Z,1.95
2022-07-29T09:45:04.286Z,2.33
2022-07-29T09:46:18.925Z,2.13
2022-07-29T09:47:26.914Z,1.90
2022-07-29T09:48:29.482Z,1.88
2022-07-29T09:49:32.563Z,1.90
2022-07-29T09:50:40.163Z,1.88
2022-07-29T09:51:42.374Z,1.88
2022-07-29T09:52:48.771Z,2.00
2022-07-29T09:53:51.537Z,1.75
2022-07-29T09:55:07.483Z,1.77
2022-07-29T09:56:11.686Z,1.92
2022-07-29T09:57:30.317Z,2.30
2022-07-29T09:58:34.634Z,2.00
2022-07-29T09:59:37.760Z,1.75
2022-07-29T10:00:56.123Z,2.05
2022-07-29T10:01:58.669Z,1.70
2022-07-29T10:03:03.767Z,1.83
2022-07-29T10:04:06.005Z,2.42
2022-07-29T10:05:19.498Z,2.10
2022-07-29T10:06:21.578Z,2.00
2022-07-29T10:07:24.963Z,2.25
2022-07-29T10:08:27.619Z,1.70
2022-07-29T10:09:30.822Z,2.10
2022-07-29T10:10:35.748Z,1.67
2022-07-29T10:11:48.856Z,2.10
2022-07-29T10:12:56.533Z,2.00
2022-07-29T10:13:58.960Z,1.90
2022-07-29T10:15:04.112Z,1.90
2022-07-29T10:16:07.406Z,2.00
2022-07-29T10:17:12.287Z,1.90
2022-07-29T10:18:15.524Z,1.80
2022-07-29T10:19:19.392Z,1.73
2022-07-29T10:20:27.066Z,1.90
2022-07-29T10:21:35.835Z,2.15
2022-07-29T10:22:54.409Z,1.92
2022-07-29T10:24:01.103Z,1.77
2022-07-29T10:25:03.990Z,1.80
2022-07-29T10:26:07.046Z,2.60
2022-07-29T10:27:12.279Z,2.00
2022-07-29T10:28:16.795Z,2.33
2022-07-29T10:29:20.112Z,2.70
2022-07-29T10:30:27.131Z,2.65
2022-07-29T10:31:35.884Z,1.92
2022-07-29T10:33:04.182Z,1.90
2022-07-29T10:34:14.921Z,1.75
2022-07-29T10:35:42.225Z,1.73
2022-07-29T10:36:56.117Z,1.73
2022-07-29T10:38:16.530Z,1.60
2022-07-29T10:39:41.565Z,1.90
2022-07-29T10:41:19.336Z,2.25
2022-07-29T10:42:29.669Z,2.38
2022-07-29T10:43:42.307Z,1.90
2022-07-29T10:44:46.679Z,1.80
2022-07-29T10:45:50.896Z,1.80
2022-07-29T10:46:56.829Z,1.95
2022-07-29T10:48:07.909Z,1.40
2022-07-29T10:49:15.612Z,1.85
2022-07-29T10:50:18.066Z,2.10
2022-07-29T10:51:21.361Z,2.00
2022-07-29T10:52:26.588Z,2.00
2022-07-29T10:53:51.075Z,1.92
2022-07-29T10:54:54.711Z,2.10
2022-07-29T10:55:56.793Z,1.75
2022-07-29T10:57:16.111Z,2.13
2022-07-29T10:58:20.489Z,1.88
2022-07-29T10:59:32.379Z,1.90
2022-07-29T11:00:39.256Z,1.90
2022-07-29T11:01:49.324Z,1.50
2022-07-29T11:02:56.482Z,2.20
2022-07-29T11:03:59.944Z,1.80
2022-07-29T11:05:02.825Z,2.15
2022-07-29T11:06:08.765Z,2.40
2022-07-29T11:07:11.629Z,1.98
2022-07-29T11:08:26.353Z,1.83
2022-07-29T11:09:37.637Z,1.98
2022-07-29T11:10:41.119Z,1.70
2022-07-29T11:13:06.512Z,3.03
2022-07-29T11:14:10.369Z,2.95
2022-07-29T11:15:18.340Z,2.60
2022-07-29T11:16:24.921Z,2.58
2022-07-29T11:17:28.059Z,2.05
2022-07-29T11:20:46.874Z,1.33
2022-07-29T11:23:27.617Z,1.67
2022-07-29T11:24:36.984Z,1.50
2022-07-29T11:25:50.710Z,1.50
2022-07-29T11:27:17.894Z,1.83
2022-07-29T11:28:25.587Z,2.78
2022-07-29T11:29:28.869Z,1.70
2022-07-29T11:30:52.640Z,2.30
2022-07-29T11:32:10.291Z,1.80
2022-07-29T11:33:37.584Z,2.00
2022-07-29T11:37:17.760Z,1.60
2022-07-29T11:38:29.367Z,1.98
2022-07-29T11:39:36.586Z,1.52
2022-07-29T11:40:42.626Z,1.83
2022-07-29T11:41:44.705Z,1.70
2022-07-29T11:42:51.975Z,1.70
2022-07-29T11:43:55.996Z,1.50
2022-07-29T11:45:08.502Z,2.03
2022-07-29T11:46:50.010Z,1.60
2022-07-29T11:47:56.130Z,1.90
2022-07-29T11:49:01.009Z,2.00
2022-07-29T11:50:10.191Z,1.50
2022-07-29T11:51:13.759Z,1.42
2022-07-29T11:52:15.926Z,1.50
2022-07-29T11:53:20.523Z,1.80
2022-07-29T11:54:27.491Z,3.17
2022-07-29T11:55:33.844Z,2.60
2022-07-29T11:56:44.672Z,1.77
2022-07-29T11:58:03.893Z,1.92
2022-07-29T11:59:10.242Z,1.50
2022-07-29T12:00:31.277Z,1.40
2022-07-29T12:01:33.722Z,1.92
2022-07-29T12:02:48.100Z,1.50
2022-07-29T12:04:04.915Z,1.67
2022-07-29T12:05:11.305Z,2.00
2022-07-29T12:06:17.459Z,1.80
2022-07-29T12:07:03.466Z,1.70
2022-07-29T12:07:34.774Z,1.75
2022-07-29T12:08:43.429Z,1.40
2022-07-29T12:09:52.269Z,1.95
2022-07-29T12:10:55.358Z,1.67
2022-07-29T12:12:04.951Z,1.48
2022-07-29T12:13:09.204Z,1.67
2022-07-29T12:14:27.081Z,1.70
2022-07-29T12:15:39.217Z,1.30
2022-07-29T12:16:50.655Z,1.40
2022-07-29T12:17:55.437Z,1.58
2022-07-29T12:18:59.909Z,1.73
2022-07-29T12:20:04.608Z,1.60
2022-07-29T12:21:09.241Z,1.50
2022-07-29T12:22:26.484Z,1.80
2022-07-29T12:23:35.041Z,1.50
2022-07-29T12:24:45.111Z,1.70
2022-07-29T12:25:49.734Z,1.63
2022-07-29T12:26:53.121Z,1.40
2022-07-29T12:28:07.390Z,1.60
2022-07-29T12:29:20.461Z,1.70
2022-07-29T12:30:44.982Z,1.60
2022-07-29T12:31:47.438Z,2.30
2022-07-29T12:32:50.823Z,1.95
2022-07-29T12:33:55.970Z,1.80
2022-07-29T12:35:03.809Z,2.10
2022-07-29T12:36:09.455Z,1.80
2022-07-29T12:37:13.951Z,1.50
2022-07-29T12:38:17.642Z,2.03
2022-07-29T12:39:21.149Z,1.65
2022-07-29T12:40:23.936Z,1.33
2022-07-29T12:41:27.153Z,1.55
2022-07-29T12:42:29.254Z,1.70
2022-07-29T12:43:32.650Z,1.80
2022-07-29T12:44:50.853Z,1.63
2022-07-29T12:45:56.195Z,1.73
2022-07-29T12:47:04.205Z,1.60
2022-07-29T12:48:09.566Z,1.75
2022-07-29T12:49:23.812Z,1.70
2022-07-29T12:50:26.650Z,1.50
2022-07-29T12:51:33.446Z,1.60
2022-07-29T12:52:36.273Z,1.60
2022-07-29T12:53:40.022Z,1.40
2022-07-29T12:54:48.018Z,1.25
2022-07-29T12:55:53.447Z,1.40
2022-07-29T12:57:00.530Z,1.42
2022-07-29T12:58:03.678Z,1.52
2022-07-29T12:59:16.277Z,1.67
2022-07-29T13:00:24.753Z,1.70
2022-07-29T13:01:28.274Z,1.70
2022-07-29T13:02:31.442Z,1.40
2022-07-29T13:03:57.380Z,1.83
2022-07-29T13:05:05.071Z,1.67
2022-07-29T13:06:10.190Z,2.03
2022-07-29T13:07:15.219Z,1.80
2022-07-29T13:08:20.222Z,1.48
2022-07-29T13:09:38.995Z,6.25
2022-07-29T13:10:41.539Z,1.60
2022-07-29T13:11:48.775Z,1.50
2022-07-29T13:13:04.656Z,1.63
2022-07-29T13:14:09.648Z,1.80
2022-07-29T13:15:15.779Z,1.65
2022-07-29T13:16:19.935Z,1.60
2022-07-29T13:17:24.618Z,1.52
2022-07-29T13:18:30.203Z,1.70
2022-07-29T13:19:38.474Z,1.77
2022-07-29T13:20:42.890Z,1.55
2022-07-29T13:21:46.478Z,1.65
2022-07-29T13:22:50.093Z,2.00
2022-07-29T13:23:52.096Z,1.80
2022-07-29T13:24:56.872Z,1.60
2022-07-29T13:26:06.633Z,1.60
2022-07-29T13:27:09.596Z,1.80
2022-07-29T13:28:12.745Z,1.63
2022-07-29T13:29:15.157Z,1.70
2022-07-29T13:30:18.390Z,2.00
2022-07-29T13:31:20.639Z,1.80
2022-07-29T13:32:28.614Z,2.10
2022-07-29T13:33:31.340Z,2.05
2022-07-29T13:34:34.353Z,1.80
2022-07-29T13:35:39.982Z,2.00
2022-07-29T13:36:44.835Z,1.85
2022-07-29T13:37:46.953Z,1.65
2022-07-29T13:38:52.605Z,1.67
2022-07-29T13:39:56.899Z,2.00
2022-07-29T13:41:00.120Z,1.90
2022-07-29T13:42:02.867Z,2.00
2022-07-29T13:43:05.946Z,2.08
2022-07-29T13:44:08.118Z,2.00
2022-07-29T13:45:12.803Z,2.00
2022-07-29T13:46:14.871Z,2.00
2022-07-29T13:47:18.318Z,1.90
2022-07-29T13:48:21.666Z,1.90
2022-07-29T13:49:23.847Z,1.92
2022-07-29T13:50:27.062Z,2.00
2022-07-29T13:51:29.099Z,1.83
2022-07-29T13:52:33.470Z,2.03
2022-07-29T13:53:35.573Z,2.03
2022-07-29T13:54:42.292Z,2.40
2022-07-29T13:55:45.752Z,2.10
2022-07-29T13:56:47.858Z,2.30
2022-07-29T13:57:50.955Z,2.22
2022-07-29T13:58:53.086Z,2.20
2022-07-29T13:59:56.217Z,1.98
2022-07-29T14:00:59.457Z,1.83
2022-07-29T14:02:01.719Z,1.80
2022-07-29T14:03:05.201Z,1.90
2022-07-29T14:04:08.517Z,2.10
2022-07-29T14:05:11.055Z,1.75
2022-07-29T14:06:14.385Z,1.92
2022-07-29T14:07:17.084Z,1.83
2022-07-29T14:08:21.447Z,1.83
2022-07-29T14:09:23.588Z,2.35
2022-07-29T14:10:26.599Z,2.20
2022-07-29T14:11:29.629Z,2.30
2022-07-29T14:12:31.824Z,1.85
2022-07-29T14:13:34.819Z,2.50
2022-07-29T14:14:38.204Z,2.20
2022-07-29T14:15:42.809Z,2.25
2022-07-29T14:16:47.539Z,2.35
2022-07-29T14:17:52.087Z,2.50
2022-07-29T14:18:54.102Z,2.45
2022-07-29T14:19:57.146Z,3.40
2022-07-29T14:20:59.268Z,3.35
2022-07-29T14:22:02.296Z,2.33
2022-07-29T14:23:06.035Z,2.40
2022-07-29T14:24:17.885Z,2.60
2022-07-29T14:25:24.935Z,2.13
2022-07-29T14:26:27.207Z,2.17
2022-07-29T14:27:37.607Z,2.00
2022-07-29T14:28:42.005Z,2.20
2022-07-29T14:29:45.205Z,2.50
2022-07-29T14:30:47.410Z,2.33
2022-07-29T14:31:50.569Z,2.30
2022-07-29T14:32:53.022Z,1.92
2022-07-29T14:34:01.142Z,2.50
2022-07-29T14:35:05.717Z,2.45
2022-07-29T14:36:08.849Z,2.15
2022-07-29T14:37:15.859Z,2.25
2022-07-29T14:38:18.264Z,2.00
2022-07-29T14:39:23.210Z,2.20
2022-07-29T14:40:26.700Z,2.20
2022-07-29T14:41:30.556Z,2.50